sensor_id;sensor_type;location;lat;lon;timestamp;pressure;altitude;pressure_sealevel;temperature;humidity
50430;BME280;36359;41.556;-8.418;2022-12-26T00:00:54;100568.81;;;13.06;100.00
50430;BME280;36359;41.556;-8.418;2022-12-26T00:03:20;100561.53;;;13.06;100.00
50430;BME280;36359;41.556;-8.418;2022-12-26T00:05:46;100558.41;;;13.01;100.00
50430;BME280;36359;41.556;-8.418;2022-12-26T00:08:12;100556.81;;;12.90;100.00
50430;BME280;36359;41.556;-8.418;2022-12-26T00:10:37;100563.97;;;12.91;100.00
50430;BME280;36359;41.556;-8.418;2022-12-26T00:13:03;100566.53;;;12.93;100.00
50430;BME280;36359;41.556;-8.418;2022-12-26T00:15:29;100563.66;;;12.94;100.00
50430;BME280;36359;41.556;-8.418;2022-12-26T00:17:54;100570.81;;;12.95;100.00
50430;BME280;36359;41.556;-8.418;2022-12-26T00:20:20;100571.25;;;13.09;100.00
50430;BME280;36359;41.556;-8.418;2022-12-26T00:22:46;100573.59;;;13.04;100.00
50430;BME280;36359;41.556;-8.418;2022-12-26T00:25:11;100577.88;;;13.06;100.00
50430;BME280;36359;41.556;-8.418;2022-12-26T00:27:37;100580.22;;;13.01;100.00
50430;BME280;36359;41.556;-8.418;2022-12-26T00:30:03;100578.31;;;12.76;100.00
50430;BME280;36359;41.556;-8.418;2022-12-26T00:32:29;100582.97;;;12.83;100.00
50430;BME280;36359;41.556;-8.418;2022-12-26T00:34:54;100578.22;;;12.85;100.00
50430;BME280;36359;41.556;-8.418;2022-12-26T00:37:20;100581.63;;;12.87;100.00
50430;BME280;36359;41.556;-8.418;2022-12-26T00:39:47;100580.78;;;12.87;100.00
50430;BME280;36359;41.556;-8.418;2022-12-26T00:42:13;100581.56;;;12.79;100.00
50430;BME280;36359;41.556;-8.418;2022-12-26T00:44:39;100581.72;;;12.78;100.00
50430;BME280;36359;41.556;-8.418;2022-12-26T00:47:04;100582.44;;;12.80;100.00
50430;BME280;36359;41.556;-8.418;2022-12-26T00:49:30;100586.75;;;12.90;100.00
50430;BME280;36359;41.556;-8.418;2022-12-26T00:51:56;100591.75;;;12.95;100.00
50430;BME280;36359;41.556;-8.418;2022-12-26T00:54:22;100589.88;;;12.95;100.00
50430;BME280;36359;41.556;-8.418;2022-12-26T00:56:47;100586.81;;;12.99;100.00
50430;BME280;36359;41.556;-8.418;2022-12-26T00:59:13;100587.00;;;12.97;100.00
50430;BME280;36359;41.556;-8.418;2022-12-26T01:01:39;100594.69;;;13.02;100.00
50430;BME280;36359;41.556;-8.418;2022-12-26T01:04:04;100586.56;;;13.10;100.00
50430;BME280;36359;41.556;-8.418;2022-12-26T01:06:30;100586.38;;;13.11;100.00
50430;BME280;36359;41.556;-8.418;2022-12-26T01:08:56;100583.97;;;13.00;100.00
50430;BME280;36359;41.556;-8.418;2022-12-26T01:11:24;100597.34;;;12.93;100.00
50430;BME280;36359;41.556;-8.418;2022-12-26T01:14:10;100596.28;;;12.86;100.00
50430;BME280;36359;41.556;-8.418;2022-12-26T01:16:37;100606.78;;;12.81;100.00
50430;BME280;36359;41.556;-8.418;2022-12-26T01:19:04;100594.19;;;12.80;100.00
50430;BME280;36359;41.556;-8.418;2022-12-26T01:21:30;100598.47;;;12.83;100.00
50430;BME280;36359;41.556;-8.418;2022-12-26T01:23:55;100598.22;;;12.76;100.00
50430;BME280;36359;41.556;-8.418;2022-12-26T01:26:21;100595.81;;;12.73;100.00
50430;BME280;36359;41.556;-8.418;2022-12-26T01:28:48;100600.72;;;12.69;100.00
50430;BME280;36359;41.556;-8.418;2022-12-26T01:31:13;100611.31;;;12.55;100.00
50430;BME280;36359;41.556;-8.418;2022-12-26T01:33:39;100619.56;;;12.63;100.00
50430;BME280;36359;41.556;-8.418;2022-12-26T01:36:05;100626.63;;;12.73;100.00
50430;BME280;36359;41.556;-8.418;2022-12-26T01:38:31;100625.31;;;12.60;100.00
50430;BME280;36359;41.556;-8.418;2022-12-26T01:40:56;100633.31;;;12.61;100.00
50430;BME280;36359;41.556;-8.418;2022-12-26T01:44:01;100629.19;;;12.75;100.00
50430;BME280;36359;41.556;-8.418;2022-12-26T01:46:43;100629.09;;;12.85;100.00
50430;BME280;36359;41.556;-8.418;2022-12-26T01:49:20;100628.44;;;12.65;100.00
50430;BME280;36359;41.556;-8.418;2022-12-26T01:51:54;100646.28;;;12.67;100.00
50430;BME280;36359;41.556;-8.418;2022-12-26T01:54:21;100637.53;;;12.73;100.00
50430;BME280;36359;41.556;-8.418;2022-12-26T01:56:48;100637.53;;;12.73;100.00
50430;BME280;36359;41.556;-8.418;2022-12-26T01:59:19;100637.97;;;12.69;100.00
50430;BME280;36359;41.556;-8.418;2022-12-26T02:01:48;100638.38;;;12.74;100.00
50430;BME280;36359;41.556;-8.418;2022-12-26T02:04:19;100639.47;;;12.63;100.00
50430;BME280;36359;41.556;-8.418;2022-12-26T02:07:05;100643.44;;;12.69;100.00
50430;BME280;36359;41.556;-8.418;2022-12-26T02:09:31;100639.38;;;12.73;100.00
50430;BME280;36359;41.556;-8.418;2022-12-26T02:12:10;100640.25;;;12.73;100.00
50430;BME280;36359;41.556;-8.418;2022-12-26T02:14:39;100635.56;;;12.66;100.00
50430;BME280;36359;41.556;-8.418;2022-12-26T02:17:06;100643.75;;;12.66;100.00
50430;BME280;36359;41.556;-8.418;2022-12-26T02:20:04;100650.44;;;12.54;100.00
50430;BME280;36359;41.556;-8.418;2022-12-26T02:25:27;100656.00;;;12.52;100.00
50430;BME280;36359;41.556;-8.418;2022-12-26T02:48:54;100701.88;;;12.47;100.00
50430;BME280;36359;41.556;-8.418;2022-12-26T02:52:01;100705.31;;;12.49;100.00
50430;BME280;36359;41.556;-8.418;2022-12-26T02:54:55;100699.13;;;12.57;100.00
50430;BME280;36359;41.556;-8.418;2022-12-26T03:00:36;100703.22;;;12.61;100.00
50430;BME280;36359;41.556;-8.418;2022-12-26T03:03:26;100704.34;;;12.68;100.00
50430;BME280;36359;41.556;-8.418;2022-12-26T03:06:17;100708.38;;;12.64;100.00
50430;BME280;36359;41.556;-8.418;2022-12-26T03:09:06;100710.94;;;12.47;100.00
50430;BME280;36359;41.556;-8.418;2022-12-26T03:11:56;100714.25;;;12.41;100.00
50430;BME280;36359;41.556;-8.418;2022-12-26T03:14:53;100719.09;;;12.47;100.00
50430;BME280;36359;41.556;-8.418;2022-12-26T03:17:34;100719.13;;;12.38;100.00
50430;BME280;36359;41.556;-8.418;2022-12-26T03:20:14;100723.41;;;12.40;100.00
50430;BME280;36359;41.556;-8.418;2022-12-26T03:22:59;100729.97;;;12.47;100.00
50430;BME280;36359;41.556;-8.418;2022-12-26T03:28:19;100733.69;;;12.46;100.00
50430;BME280;36359;41.556;-8.418;2022-12-26T03:30:45;100734.53;;;12.47;100.00
50430;BME280;36359;41.556;-8.418;2022-12-26T03:33:32;100740.38;;;12.52;100.00
50430;BME280;36359;41.556;-8.418;2022-12-26T03:41:56;100741.84;;;12.46;100.00
50430;BME280;36359;41.556;-8.418;2022-12-26T03:45:08;100746.63;;;12.44;100.00
50430;BME280;36359;41.556;-8.418;2022-12-26T03:48:07;100753.31;;;12.50;100.00
50430;BME280;36359;41.556;-8.418;2022-12-26T03:51:18;100758.47;;;12.43;100.00
50430;BME280;36359;41.556;-8.418;2022-12-26T03:54:11;100757.19;;;12.47;100.00
50430;BME280;36359;41.556;-8.418;2022-12-26T03:57:04;100751.75;;;12.47;100.00
50430;BME280;36359;41.556;-8.418;2022-12-26T04:00:02;100743.97;;;12.53;100.00
50430;BME280;36359;41.556;-8.418;2022-12-26T04:02:51;100737.22;;;12.29;100.00
50430;BME280;36359;41.556;-8.418;2022-12-26T04:05:42;100741.56;;;12.22;100.00
50430;BME280;36359;41.556;-8.418;2022-12-26T04:08:58;100762.13;;;12.34;100.00
50430;BME280;36359;41.556;-8.418;2022-12-26T04:11:44;100734.72;;;12.18;100.00
50430;BME280;36359;41.556;-8.418;2022-12-26T04:14:49;100760.72;;;12.30;100.00
50430;BME280;36359;41.556;-8.418;2022-12-26T04:20:54;100765.03;;;12.23;100.00
50430;BME280;36359;41.556;-8.418;2022-12-26T04:26:23;100758.19;;;12.19;100.00
50430;BME280;36359;41.556;-8.418;2022-12-26T04:29:08;100766.47;;;12.27;100.00
50430;BME280;36359;41.556;-8.418;2022-12-26T04:34:46;100774.22;;;12.22;100.00
50430;BME280;36359;41.556;-8.418;2022-12-26T04:37:34;100777.44;;;12.35;100.00
50430;BME280;36359;41.556;-8.418;2022-12-26T04:40:28;100763.81;;;12.35;100.00
50430;BME280;36359;41.556;-8.418;2022-12-26T04:43:16;100781.41;;;12.41;100.00
50430;BME280;36359;41.556;-8.418;2022-12-26T04:46:01;100790.75;;;12.38;100.00
50430;BME280;36359;41.556;-8.418;2022-12-26T04:48:27;100786.16;;;12.39;100.00
50430;BME280;36359;41.556;-8.418;2022-12-26T04:51:11;100785.88;;;12.32;100.00
50430;BME280;36359;41.556;-8.418;2022-12-26T04:53:37;100791.34;;;12.32;100.00
50430;BME280;36359;41.556;-8.418;2022-12-26T04:56:03;100797.78;;;12.31;100.00
50430;BME280;36359;41.556;-8.418;2022-12-26T04:58:29;100785.88;;;12.42;100.00
50430;BME280;36359;41.556;-8.418;2022-12-26T05:00:54;100794.47;;;12.37;100.00
50430;BME280;36359;41.556;-8.418;2022-12-26T05:03:40;100798.66;;;12.32;100.00
50430;BME280;36359;41.556;-8.418;2022-12-26T05:06:24;100800.41;;;12.23;100.00
50430;BME280;36359;41.556;-8.418;2022-12-26T05:09:10;100801.16;;;12.15;100.00
50430;BME280;36359;41.556;-8.418;2022-12-26T05:11:54;100804.56;;;12.27;100.00
50430;BME280;36359;41.556;-8.418;2022-12-26T05:14:20;100808.56;;;12.23;100.00
50430;BME280;36359;41.556;-8.418;2022-12-26T05:16:46;100807.09;;;12.28;100.00
50430;BME280;36359;41.556;-8.418;2022-12-26T05:19:30;100807.56;;;12.24;100.00
50430;BME280;36359;41.556;-8.418;2022-12-26T05:22:14;100811.81;;;12.36;100.00
50430;BME280;36359;41.556;-8.418;2022-12-26T05:24:59;100811.22;;;12.42;100.00
50430;BME280;36359;41.556;-8.418;2022-12-26T05:27:43;100817.16;;;12.56;100.00
50430;BME280;36359;41.556;-8.418;2022-12-26T05:30:28;100810.66;;;12.39;100.00
50430;BME280;36359;41.556;-8.418;2022-12-26T05:32:53;100816.34;;;12.45;100.00
50430;BME280;36359;41.556;-8.418;2022-12-26T05:35:38;100837.41;;;12.43;100.00
50430;BME280;36359;41.556;-8.418;2022-12-26T05:38:05;100826.56;;;12.34;100.00
50430;BME280;36359;41.556;-8.418;2022-12-26T05:40:31;100832.44;;;12.29;100.00
50430;BME280;36359;41.556;-8.418;2022-12-26T05:42:56;100834.88;;;12.32;100.00
50430;BME280;36359;41.556;-8.418;2022-12-26T05:45:22;100829.00;;;12.37;100.00
50430;BME280;36359;41.556;-8.418;2022-12-26T05:47:48;100834.00;;;12.32;100.00
50430;BME280;36359;41.556;-8.418;2022-12-26T05:50:14;100836.06;;;12.20;100.00
50430;BME280;36359;41.556;-8.418;2022-12-26T05:52:39;100844.94;;;12.22;100.00
50430;BME280;36359;41.556;-8.418;2022-12-26T05:55:05;100849.06;;;12.26;100.00
50430;BME280;36359;41.556;-8.418;2022-12-26T05:57:31;100854.97;;;12.21;100.00
50430;BME280;36359;41.556;-8.418;2022-12-26T05:59:57;100858.66;;;12.30;100.00
50430;BME280;36359;41.556;-8.418;2022-12-26T06:02:22;100860.06;;;12.34;100.00
50430;BME280;36359;41.556;-8.418;2022-12-26T06:04:48;100874.41;;;12.36;100.00
50430;BME280;36359;41.556;-8.418;2022-12-26T06:07:14;100881.13;;;12.42;100.00
50430;BME280;36359;41.556;-8.418;2022-12-26T06:09:39;100875.97;;;12.29;100.00
50430;BME280;36359;41.556;-8.418;2022-12-26T06:12:05;100875.72;;;12.22;100.00
50430;BME280;36359;41.556;-8.418;2022-12-26T06:14:31;100869.44;;;12.22;100.00
50430;BME280;36359;41.556;-8.418;2022-12-26T06:16:56;100867.84;;;12.19;100.00
50430;BME280;36359;41.556;-8.418;2022-12-26T06:19:22;100878.44;;;12.22;100.00
50430;BME280;36359;41.556;-8.418;2022-12-26T06:21:48;100874.69;;;12.33;100.00
50430;BME280;36359;41.556;-8.418;2022-12-26T06:24:13;100886.28;;;12.35;100.00
50430;BME280;36359;41.556;-8.418;2022-12-26T06:26:39;100878.22;;;12.06;100.00
50430;BME280;36359;41.556;-8.418;2022-12-26T06:29:05;100882.75;;;12.25;100.00
50430;BME280;36359;41.556;-8.418;2022-12-26T06:31:31;100884.75;;;12.23;100.00
50430;BME280;36359;41.556;-8.418;2022-12-26T06:33:57;100877.16;;;12.26;100.00
50430;BME280;36359;41.556;-8.418;2022-12-26T06:36:26;100882.00;;;12.33;100.00
50430;BME280;36359;41.556;-8.418;2022-12-26T06:38:52;100896.94;;;12.19;100.00
50430;BME280;36359;41.556;-8.418;2022-12-26T06:41:21;100897.94;;;12.18;100.00
50430;BME280;36359;41.556;-8.418;2022-12-26T06:43:47;100898.63;;;12.20;100.00
50430;BME280;36359;41.556;-8.418;2022-12-26T06:46:17;100899.03;;;12.35;100.00
50430;BME280;36359;41.556;-8.418;2022-12-26T06:48:44;100896.19;;;12.36;100.00
50430;BME280;36359;41.556;-8.418;2022-12-26T06:51:24;100900.44;;;12.48;100.00
50430;BME280;36359;41.556;-8.418;2022-12-26T06:53:51;100896.59;;;12.32;100.00
50430;BME280;36359;41.556;-8.418;2022-12-26T06:56:22;100903.91;;;12.31;100.00
50430;BME280;36359;41.556;-8.418;2022-12-26T06:59:05;100906.22;;;12.26;100.00
50430;BME280;36359;41.556;-8.418;2022-12-26T07:01:33;100921.72;;;12.16;100.00
50430;BME280;36359;41.556;-8.418;2022-12-26T07:03:59;100924.97;;;12.29;100.00
50430;BME280;36359;41.556;-8.418;2022-12-26T07:06:30;100935.00;;;12.38;100.00
50430;BME280;36359;41.556;-8.418;2022-12-26T07:09:06;100939.97;;;12.43;100.00
50430;BME280;36359;41.556;-8.418;2022-12-26T07:11:34;100942.56;;;12.44;100.00
50430;BME280;36359;41.556;-8.418;2022-12-26T07:14:00;100942.84;;;12.41;100.00
50430;BME280;36359;41.556;-8.418;2022-12-26T07:16:25;100948.72;;;12.37;100.00
50430;BME280;36359;41.556;-8.418;2022-12-26T07:18:52;100951.16;;;12.40;100.00
50430;BME280;36359;41.556;-8.418;2022-12-26T07:21:19;100960.22;;;12.21;100.00
50430;BME280;36359;41.556;-8.418;2022-12-26T07:23:44;100959.94;;;12.24;100.00
50430;BME280;36359;41.556;-8.418;2022-12-26T07:26:10;100962.06;;;12.20;100.00
50430;BME280;36359;41.556;-8.418;2022-12-26T07:28:36;100951.34;;;12.19;100.00
50430;BME280;36359;41.556;-8.418;2022-12-26T07:31:02;100944.47;;;12.15;100.00
50430;BME280;36359;41.556;-8.418;2022-12-26T07:33:28;100947.75;;;12.28;100.00
50430;BME280;36359;41.556;-8.418;2022-12-26T07:36:02;100950.19;;;12.21;100.00
50430;BME280;36359;41.556;-8.418;2022-12-26T07:38:29;100965.78;;;12.19;100.00
50430;BME280;36359;41.556;-8.418;2022-12-26T07:40:55;100961.25;;;12.00;100.00
50430;BME280;36359;41.556;-8.418;2022-12-26T07:43:22;100967.09;;;12.15;100.00
50430;BME280;36359;41.556;-8.418;2022-12-26T07:45:49;100970.38;;;11.99;100.00
50430;BME280;36359;41.556;-8.418;2022-12-26T07:48:15;100968.25;;;12.03;100.00
50430;BME280;36359;41.556;-8.418;2022-12-26T07:50:42;100982.41;;;11.97;100.00
50430;BME280;36359;41.556;-8.418;2022-12-26T07:53:12;100981.84;;;12.13;100.00
50430;BME280;36359;41.556;-8.418;2022-12-26T07:55:39;100973.34;;;12.35;100.00
50430;BME280;36359;41.556;-8.418;2022-12-26T07:58:04;100980.53;;;12.36;100.00
50430;BME280;36359;41.556;-8.418;2022-12-26T08:00:30;100981.81;;;12.32;100.00
50430;BME280;36359;41.556;-8.418;2022-12-26T08:02:56;100993.09;;;12.47;100.00
50430;BME280;36359;41.556;-8.418;2022-12-26T08:05:21;100992.69;;;12.42;100.00
50430;BME280;36359;41.556;-8.418;2022-12-26T08:07:48;100985.34;;;12.52;100.00
50430;BME280;36359;41.556;-8.418;2022-12-26T08:10:16;100996.28;;;12.42;100.00
50430;BME280;36359;41.556;-8.418;2022-12-26T08:12:42;100995.81;;;12.57;100.00
50430;BME280;36359;41.556;-8.418;2022-12-26T08:15:10;100988.94;;;12.53;100.00
50430;BME280;36359;41.556;-8.418;2022-12-26T08:17:36;100990.13;;;12.50;100.00
50430;BME280;36359;41.556;-8.418;2022-12-26T08:20:02;101003.00;;;12.48;100.00
50430;BME280;36359;41.556;-8.418;2022-12-26T08:22:28;101001.69;;;12.52;100.00
50430;BME280;36359;41.556;-8.418;2022-12-26T08:24:54;100992.97;;;12.29;100.00
50430;BME280;36359;41.556;-8.418;2022-12-26T08:27:19;100992.84;;;12.31;100.00
50430;BME280;36359;41.556;-8.418;2022-12-26T08:29:46;100992.81;;;12.40;100.00
50430;BME280;36359;41.556;-8.418;2022-12-26T08:32:12;100989.13;;;12.41;100.00
50430;BME280;36359;41.556;-8.418;2022-12-26T08:34:37;100998.69;;;12.45;100.00
50430;BME280;36359;41.556;-8.418;2022-12-26T08:37:03;100994.66;;;12.49;100.00
50430;BME280;36359;41.556;-8.418;2022-12-26T08:39:29;101005.41;;;12.61;100.00
50430;BME280;36359;41.556;-8.418;2022-12-26T08:41:54;101010.03;;;12.50;100.00
50430;BME280;36359;41.556;-8.418;2022-12-26T08:44:20;101002.72;;;12.51;100.00
50430;BME280;36359;41.556;-8.418;2022-12-26T08:46:46;101003.72;;;12.50;100.00
50430;BME280;36359;41.556;-8.418;2022-12-26T08:49:12;101009.44;;;12.37;100.00
50430;BME280;36359;41.556;-8.418;2022-12-26T08:51:37;101014.75;;;12.48;100.00
50430;BME280;36359;41.556;-8.418;2022-12-26T08:54:04;101025.03;;;12.74;100.00
50430;BME280;36359;41.556;-8.418;2022-12-26T08:56:30;101033.31;;;12.72;100.00
50430;BME280;36359;41.556;-8.418;2022-12-26T08:58:56;101034.06;;;12.55;100.00
50430;BME280;36359;41.556;-8.418;2022-12-26T09:01:25;101026.78;;;12.46;100.00
50430;BME280;36359;41.556;-8.418;2022-12-26T09:03:56;101030.50;;;12.35;100.00
50430;BME280;36359;41.556;-8.418;2022-12-26T09:06:23;101032.09;;;12.28;100.00
50430;BME280;36359;41.556;-8.418;2022-12-26T09:08:49;101039.69;;;12.34;100.00
50430;BME280;36359;41.556;-8.418;2022-12-26T09:11:18;101047.69;;;12.26;100.00
50430;BME280;36359;41.556;-8.418;2022-12-26T09:13:45;101050.41;;;12.16;100.00
50430;BME280;36359;41.556;-8.418;2022-12-26T09:16:14;101048.84;;;12.23;100.00
50430;BME280;36359;41.556;-8.418;2022-12-26T09:18:42;101054.00;;;12.26;100.00
50430;BME280;36359;41.556;-8.418;2022-12-26T09:21:10;101059.16;;;12.20;100.00
50430;BME280;36359;41.556;-8.418;2022-12-26T09:23:36;101067.88;;;12.23;100.00
50430;BME280;36359;41.556;-8.418;2022-12-26T09:26:07;101074.91;;;12.26;100.00
50430;BME280;36359;41.556;-8.418;2022-12-26T09:28:34;101067.88;;;12.14;100.00
50430;BME280;36359;41.556;-8.418;2022-12-26T09:31:05;101080.63;;;12.13;100.00
50430;BME280;36359;41.556;-8.418;2022-12-26T09:33:31;101097.84;;;12.33;100.00
50430;BME280;36359;41.556;-8.418;2022-12-26T09:36:11;101097.81;;;12.53;100.00
50430;BME280;36359;41.556;-8.418;2022-12-26T09:38:38;101106.84;;;12.63;100.00
50430;BME280;36359;41.556;-8.418;2022-12-26T09:41:35;101100.97;;;12.67;100.00
50430;BME280;36359;41.556;-8.418;2022-12-26T09:49:54;101107.88;;;12.62;100.00
50430;BME280;36359;41.556;-8.418;2022-12-26T09:52:37;101109.84;;;12.89;100.00
50430;BME280;36359;41.556;-8.418;2022-12-26T09:58:27;101113.72;;;12.86;100.00
50430;BME280;36359;41.556;-8.418;2022-12-26T10:03:49;101115.28;;;12.79;100.00
50430;BME280;36359;41.556;-8.418;2022-12-26T10:06:24;101136.22;;;12.88;100.00
50430;BME280;36359;41.556;-8.418;2022-12-26T10:22:54;101157.69;;;13.01;100.00
50430;BME280;36359;41.556;-8.418;2022-12-26T10:25:32;101164.69;;;13.13;100.00
50430;BME280;36359;41.556;-8.418;2022-12-26T10:28:01;101164.13;;;13.10;100.00
50430;BME280;36359;41.556;-8.418;2022-12-26T10:30:40;101162.09;;;13.31;100.00
50430;BME280;36359;41.556;-8.418;2022-12-26T10:33:19;101167.00;;;13.28;100.00
50430;BME280;36359;41.556;-8.418;2022-12-26T10:35:46;101174.59;;;13.24;100.00
50430;BME280;36359;41.556;-8.418;2022-12-26T10:40:46;101186.63;;;13.31;100.00
50430;BME280;36359;41.556;-8.418;2022-12-26T10:46:18;101183.47;;;13.26;100.00
50430;BME280;36359;41.556;-8.418;2022-12-26T10:48:49;101180.47;;;13.29;100.00
50430;BME280;36359;41.556;-8.418;2022-12-26T10:51:15;101166.72;;;13.21;100.00
50430;BME280;36359;41.556;-8.418;2022-12-26T10:53:49;101179.78;;;13.27;100.00
50430;BME280;36359;41.556;-8.418;2022-12-26T10:56:16;101179.03;;;13.35;100.00
50430;BME280;36359;41.556;-8.418;2022-12-26T10:58:43;101178.47;;;13.31;100.00
50430;BME280;36359;41.556;-8.418;2022-12-26T11:01:30;101175.69;;;13.41;100.00
50430;BME280;36359;41.556;-8.418;2022-12-26T11:03:59;101175.09;;;13.57;100.00
50430;BME280;36359;41.556;-8.418;2022-12-26T11:06:30;101172.50;;;13.93;100.00
50430;BME280;36359;41.556;-8.418;2022-12-26T11:08:58;101166.75;;;13.68;100.00
50430;BME280;36359;41.556;-8.418;2022-12-26T11:11:32;101178.53;;;13.59;100.00
50430;BME280;36359;41.556;-8.418;2022-12-26T11:14:41;101180.28;;;13.50;100.00
50430;BME280;36359;41.556;-8.418;2022-12-26T11:17:28;101177.81;;;13.57;100.00
50430;BME280;36359;41.556;-8.418;2022-12-26T11:22:42;101180.47;;;13.76;100.00
50430;BME280;36359;41.556;-8.418;2022-12-26T11:27:59;101183.84;;;13.88;100.00
50430;BME280;36359;41.556;-8.418;2022-12-26T11:30:46;101174.00;;;14.05;100.00
50430;BME280;36359;41.556;-8.418;2022-12-26T11:33:17;101175.38;;;14.19;100.00
50430;BME280;36359;41.556;-8.418;2022-12-26T11:35:49;101165.69;;;14.06;100.00
50430;BME280;36359;41.556;-8.418;2022-12-26T11:38:18;101155.72;;;14.15;100.00
50430;BME280;36359;41.556;-8.418;2022-12-26T11:41:07;101150.66;;;14.20;100.00
50430;BME280;36359;41.556;-8.418;2022-12-26T11:43:53;101169.69;;;14.12;100.00
50430;BME280;36359;41.556;-8.418;2022-12-26T11:46:20;101169.38;;;14.15;100.00
50430;BME280;36359;41.556;-8.418;2022-12-26T11:48:50;101163.47;;;13.92;100.00
50430;BME280;36359;41.556;-8.418;2022-12-26T11:51:29;101170.38;;;13.86;100.00
50430;BME280;36359;41.556;-8.418;2022-12-26T11:54:22;101170.31;;;13.96;100.00
50430;BME280;36359;41.556;-8.418;2022-12-26T11:56:59;101169.16;;;13.99;100.00
50430;BME280;36359;41.556;-8.418;2022-12-26T11:59:25;101168.94;;;14.38;100.00
50430;BME280;36359;41.556;-8.418;2022-12-26T12:02:23;101165.03;;;14.68;100.00
50430;BME280;36359;41.556;-8.418;2022-12-26T12:04:52;101161.88;;;14.63;100.00
50430;BME280;36359;41.556;-8.418;2022-12-26T12:16:27;101142.16;;;14.23;100.00
50430;BME280;36359;41.556;-8.418;2022-12-26T12:25:13;101120.25;;;14.15;100.00
50430;BME280;36359;41.556;-8.418;2022-12-26T12:30:37;101145.06;;;14.40;100.00
50430;BME280;36359;41.556;-8.418;2022-12-26T12:36:22;101144.94;;;14.41;100.00
50430;BME280;36359;41.556;-8.418;2022-12-26T12:44:20;101132.84;;;14.80;100.00
50430;BME280;36359;41.556;-8.418;2022-12-26T12:47:16;101130.56;;;14.93;100.00
50430;BME280;36359;41.556;-8.418;2022-12-26T12:55:54;101120.59;;;14.84;100.00
50430;BME280;36359;41.556;-8.418;2022-12-26T13:01:13;101123.78;;;14.79;100.00
50430;BME280;36359;41.556;-8.418;2022-12-26T13:03:49;101123.72;;;14.89;100.00
50430;BME280;36359;41.556;-8.418;2022-12-26T13:08:55;101106.75;;;15.03;100.00
50430;BME280;36359;41.556;-8.418;2022-12-26T13:11:34;101113.31;;;15.18;100.00
50430;BME280;36359;41.556;-8.418;2022-12-26T13:16:43;101109.19;;;15.14;100.00
50430;BME280;36359;41.556;-8.418;2022-12-26T13:19:33;101105.91;;;15.37;100.00
50430;BME280;36359;41.556;-8.418;2022-12-26T13:22:05;101112.34;;;15.28;100.00
50430;BME280;36359;41.556;-8.418;2022-12-26T13:25:00;101118.09;;;15.42;100.00
50430;BME280;36359;41.556;-8.418;2022-12-26T13:27:30;101110.50;;;15.62;100.00
50430;BME280;36359;41.556;-8.418;2022-12-26T13:29:58;101109.38;;;15.73;100.00
50430;BME280;36359;41.556;-8.418;2022-12-26T13:32:26;101105.78;;;15.73;100.00
50430;BME280;36359;41.556;-8.418;2022-12-26T13:34:55;101082.78;;;15.57;100.00
50430;BME280;36359;41.556;-8.418;2022-12-26T13:40:19;101096.34;;;15.41;100.00
50430;BME280;36359;41.556;-8.418;2022-12-26T13:43:12;101096.69;;;15.38;100.00
50430;BME280;36359;41.556;-8.418;2022-12-26T13:45:59;101112.75;;;15.41;100.00
50430;BME280;36359;41.556;-8.418;2022-12-26T13:50:56;101110.56;;;15.71;100.00
50430;BME280;36359;41.556;-8.418;2022-12-26T13:53:31;101108.34;;;15.74;100.00
50430;BME280;36359;41.556;-8.418;2022-12-26T13:56:00;101099.22;;;15.65;100.00
50430;BME280;36359;41.556;-8.418;2022-12-26T14:04:27;101095.31;;;15.34;100.00
50430;BME280;36359;41.556;-8.418;2022-12-26T14:09:51;101107.69;;;15.20;100.00
50430;BME280;36359;41.556;-8.418;2022-12-26T14:18:04;101122.03;;;15.48;100.00
50430;BME280;36359;41.556;-8.418;2022-12-26T14:26:25;101122.19;;;15.20;100.00
50430;BME280;36359;41.556;-8.418;2022-12-26T14:29:04;101126.66;;;14.95;100.00
50430;BME280;36359;41.556;-8.418;2022-12-26T14:37:21;101126.09;;;15.44;100.00
50430;BME280;36359;41.556;-8.418;2022-12-26T14:42:23;101122.38;;;15.45;100.00
50430;BME280;36359;41.556;-8.418;2022-12-26T14:47:53;101125.31;;;15.26;100.00
50430;BME280;36359;41.556;-8.418;2022-12-26T14:58:31;101132.13;;;15.48;100.00
50430;BME280;36359;41.556;-8.418;2022-12-26T15:07:34;101152.84;;;15.58;100.00
50430;BME280;36359;41.556;-8.418;2022-12-26T15:36:44;101177.25;;;15.26;100.00
50430;BME280;36359;41.556;-8.418;2022-12-26T15:41:50;101172.19;;;15.31;100.00
50430;BME280;36359;41.556;-8.418;2022-12-26T15:45:13;101171.16;;;15.32;100.00
50430;BME280;36359;41.556;-8.418;2022-12-26T16:00:48;101180.56;;;15.11;100.00
50430;BME280;36359;41.556;-8.418;2022-12-26T16:14:44;101201.13;;;15.15;100.00
50430;BME280;36359;41.556;-8.418;2022-12-26T16:19:43;101203.22;;;15.21;100.00
50430;BME280;36359;41.556;-8.418;2022-12-26T16:22:33;101204.06;;;15.22;100.00
50430;BME280;36359;41.556;-8.418;2022-12-26T16:25:16;101216.03;;;15.21;100.00
50430;BME280;36359;41.556;-8.418;2022-12-26T16:27:44;101216.88;;;15.21;100.00
50430;BME280;36359;41.556;-8.418;2022-12-26T16:30:21;101205.56;;;15.16;100.00
50430;BME280;36359;41.556;-8.418;2022-12-26T16:32:48;101217.03;;;15.20;100.00
50430;BME280;36359;41.556;-8.418;2022-12-26T16:35:23;101210.00;;;15.17;100.00
50430;BME280;36359;41.556;-8.418;2022-12-26T16:37:51;101214.78;;;15.15;100.00
50430;BME280;36359;41.556;-8.418;2022-12-26T16:40:24;101212.38;;;15.12;100.00
50430;BME280;36359;41.556;-8.418;2022-12-26T16:42:59;101221.25;;;15.14;100.00
50430;BME280;36359;41.556;-8.418;2022-12-26T16:45:26;101227.91;;;15.12;100.00
50430;BME280;36359;41.556;-8.418;2022-12-26T16:47:54;101229.53;;;15.05;100.00
50430;BME280;36359;41.556;-8.418;2022-12-26T16:50:25;101222.38;;;15.04;100.00